createdAt,value
2022-10-13T00:01:00.377Z,2.23
2022-10-13T00:04:57.995Z,2.23
2022-10-13T00:08:58.423Z,2.23
2022-10-13T00:12:58.394Z,2.23
2022-10-13T00:16:58.413Z,2.23
2022-10-13T00:20:58.475Z,2.23
2022-10-13T00:24:57.944Z,2.23
2022-10-13T00:29:04.245Z,2.23
2022-10-13T00:32:58.035Z,2.23
2022-10-13T00:36:58.059Z,2.23
2022-10-13T00:40:57.732Z,2.73
2022-10-13T00:44:58.448Z,2.73
2022-10-13T00:48:57.719Z,2.73
2022-10-13T00:52:58.242Z,2.73
2022-10-13T00:56:57.615Z,2.73
2022-10-13T01:01:02.579Z,2.73
2022-10-13T01:04:57.889Z,2.73
2022-10-13T01:08:58.330Z,2.73
2022-10-13T01:12:58.234Z,2.73
2022-10-13T01:16:57.609Z,2.73
2022-10-13T01:20:58.156Z,2.73
2022-10-13T01:24:57.570Z,2.73
2022-10-13T01:28:58.414Z,2.73
2022-10-13T01:32:58.263Z,2.73
2022-10-13T01:36:58.221Z,2.73
2022-10-13T01:40:57.552Z,2.73
2022-10-13T01:44:58.482Z,2.73
2022-10-13T01:48:57.881Z,2.73
2022-10-13T01:52:58.428Z,2.73
2022-10-13T01:56:58.137Z,2.73
2022-10-13T02:01:01.140Z,2.73
2022-10-13T02:04:58.099Z,2.73
2022-10-13T02:08:58.156Z,2.73
2022-10-13T02:12:58.375Z,2.73
2022-10-13T02:16:57.554Z,2.73
2022-10-13T02:20:57.934Z,2.73
2022-10-13T02:24:57.602Z,2.73
2022-10-13T02:28:58.601Z,2.73
2022-10-13T02:32:57.926Z,2.73
2022-10-13T02:36:58.225Z,2.73
2022-10-13T02:40:57.502Z,2.73
2022-10-13T02:44:57.589Z,2.73
2022-10-13T02:48:58.093Z,2.73
2022-10-13T02:52:58.350Z,2.73
2022-10-13T02:56:57.591Z,2.73
2022-10-13T03:01:00.737Z,2.73
2022-10-13T03:04:57.577Z,2.73
2022-10-13T03:08:57.818Z,2.73
2022-10-13T03:12:58.244Z,2.73
2022-10-13T03:16:58.139Z,2.73
2022-10-13T03:20:57.910Z,2.73
2022-10-13T03:24:57.979Z,2.73
2022-10-13T03:28:57.864Z,2.73
2022-10-13T03:32:57.936Z,2.73
2022-10-13T03:36:58.357Z,2.73
2022-10-13T03:40:57.469Z,2.73
2022-10-13T03:44:58.105Z,2.73
2022-10-13T03:48:57.929Z,2.73
2022-10-13T03:52:58.023Z,2.73
2022-10-13T03:56:57.525Z,2.73
2022-10-13T04:01:01.084Z,2.73
2022-10-13T04:04:57.473Z,2.73
2022-10-13T04:08:57.602Z,2.73
2022-10-13T04:13:04.723Z,2.73
2022-10-13T04:16:58.102Z,2.73
2022-10-13T04:20:58.455Z,2.73
2022-10-13T04:24:57.519Z,2.73
2022-10-13T04:28:58.269Z,2.73
2022-10-13T04:32:57.627Z,2.73
2022-10-13T04:36:57.864Z,2.73
2022-10-13T04:40:58.082Z,2.73
2022-10-13T04:44:57.454Z,2.73
2022-10-13T04:48:57.554Z,2.73
2022-10-13T04:52:58.209Z,2.73
2022-10-13T04:56:58.018Z,2.73
2022-10-13T05:01:01.304Z,2.73
2022-10-13T05:04:58.122Z,2.73
2022-10-13T05:08:58.343Z,2.73
2022-10-13T05:12:58.032Z,2.73
2022-10-13T05:16:58.109Z,2.73
2022-10-13T05:20:58.246Z,2.73
2022-10-13T05:24:58.393Z,2.73
2022-10-13T05:28:58.969Z,2.73
2022-10-13T05:33:04.950Z,2.73
2022-10-13T05:36:57.434Z,2.73
2022-10-13T05:40:57.801Z,2.73
2022-10-13T05:44:58.418Z,2.73
2022-10-13T05:48:57.500Z,2.73
2022-10-13T05:52:57.645Z,2.73
2022-10-13T05:56:57.992Z,2.73
2022-10-13T06:00:57.679Z,2.73
2022-10-13T06:04:57.541Z,2.73
2022-10-13T06:08:57.600Z,2.73
2022-10-13T06:12:58.021Z,2.73
2022-10-13T06:16:58.224Z,2.73
2022-10-13T06:20:58.067Z,2.73
2022-10-13T06:24:57.634Z,2.73
2022-10-13T06:29:02.389Z,2.73
2022-10-13T06:32:58.332Z,2.73
2022-10-13T06:36:58.448Z,2.73
2022-10-13T06:40:58.504Z,2.73
2022-10-13T06:44:57.607Z,2.73
2022-10-13T06:48:58.328Z,2.73
2022-10-13T06:52:57.745Z,2.73
2022-10-13T06:56:58.341Z,2.73
2022-10-13T07:01:00.851Z,2.73
2022-10-13T07:04:57.965Z,2.73
2022-10-13T07:08:58.434Z,2.73
2022-10-13T07:12:57.540Z,2.73
2022-10-13T07:16:58.316Z,2.73
2022-10-13T07:21:03.509Z,2.73
2022-10-13T07:24:57.657Z,2.73
2022-10-13T07:28:58.398Z,2.73
2022-10-13T07:32:58.508Z,2.73
2022-10-13T07:36:57.463Z,2.73
2022-10-13T07:40:57.821Z,2.73
2022-10-13T07:44:57.739Z,2.73
2022-10-13T07:48:57.501Z,2.73
2022-10-13T07:52:57.701Z,16.39
2022-10-13T07:56:57.578Z,16.39
2022-10-13T08:01:00.610Z,16.39
2022-10-13T08:04:57.660Z,16.39
2022-10-13T08:08:57.588Z,16.39
2022-10-13T08:12:58.620Z,16.39
2022-10-13T08:17:02.675Z,16.39
2022-10-13T08:21:57.086Z,16.39
2022-10-13T08:24:57.757Z,16.39
2022-10-13T08:29:21.862Z,16.39
2022-10-13T08:32:57.847Z,16.39
2022-10-13T08:36:58.387Z,16.39
2022-10-13T08:40:58.308Z,16.39
2022-10-13T08:46:26.516Z,16.39
2022-10-13T08:48:58.148Z,16.39
2022-10-13T08:52:57.696Z,16.39
2022-10-13T08:56:57.709Z,3.52
2022-10-13T09:01:00.161Z,3.52
2022-10-13T09:04:57.617Z,0.13
2022-10-13T09:08:58.121Z,0.07
2022-10-13T09:12:58.416Z,0.07
2022-10-13T09:16:57.893Z,0.06
2022-10-13T09:20:58.269Z,0.06
2022-10-13T09:24:57.942Z,0.06
2022-10-13T09:28:58.791Z,0.06
2022-10-13T09:32:58.228Z,0.06
2022-10-13T09:36:57.529Z,0.06
2022-10-13T09:40:58.097Z,0.06
2022-10-13T09:45:01.560Z,0.06
2022-10-13T09:48:58.168Z,0.06
2022-10-13T09:52:58.041Z,0.06
2022-10-13T09:56:57.627Z,0.06
2022-10-13T10:01:00.925Z,0.06
2022-10-13T10:04:58.318Z,0.06
2022-10-13T10:09:25.492Z,0.06
2022-10-13T10:13:01.699Z,0.06
2022-10-13T10:16:58.111Z,0.06
2022-10-13T10:20:58.163Z,12.33
2022-10-13T10:24:57.938Z,1.76
2022-10-13T10:28:58.329Z,0.1
2022-10-13T10:32:58.175Z,0.06
2022-10-13T10:36:58.448Z,0.06
2022-10-13T10:40:57.731Z,0.05
2022-10-13T10:44:57.818Z,0.05
2022-10-13T10:48:58.061Z,0.05
2022-10-13T10:52:57.790Z,0.05
2022-10-13T10:56:58.146Z,0.05
2022-10-13T11:01:01.426Z,0.05
2022-10-13T11:05:02.128Z,0.05
2022-10-13T11:08:57.808Z,0.05
2022-10-13T11:12:58.610Z,0.05
2022-10-13T11:16:58.634Z,0.05
2022-10-13T11:20:58.692Z,0.05
2022-10-13T11:24:58.738Z,0.05
2022-10-13T11:28:58.664Z,0.05
2022-10-13T11:32:57.665Z,0.05
2022-10-13T11:36:57.555Z,0.05
2022-10-13T11:40:57.503Z,0.05
2022-10-13T11:44:58.347Z,9.7
2022-10-13T11:48:57.948Z,1.41
2022-10-13T11:52:57.858Z,1.41
2022-10-13T11:57:02.184Z,1.41
2022-10-13T12:01:05.010Z,1.41
2022-10-13T12:04:58.174Z,1.41
2022-10-13T12:08:58.182Z,1.41
2022-10-13T12:12:58.004Z,1.41
2022-10-13T12:16:58.165Z,1.41
2022-10-13T12:20:58.032Z,1.41
2022-10-13T12:24:58.298Z,1.41
2022-10-13T12:28:58.392Z,1.41
2022-10-13T12:32:58.469Z,1.41
2022-10-13T12:36:57.913Z,1.41
2022-10-13T12:40:57.854Z,1.41
2022-10-13T12:45:02.975Z,1.41
2022-10-13T12:48:58.252Z,1.41
2022-10-13T12:52:57.987Z,1.41
2022-10-13T12:56:57.621Z,1.41
2022-10-13T13:01:00.647Z,1.41
2022-10-13T13:04:57.563Z,1.41
2022-10-13T13:08:57.678Z,1.41
2022-10-13T13:12:57.724Z,1.41
2022-10-13T13:16:59.911Z,1.41
2022-10-13T13:20:57.812Z,1.41
2022-10-13T13:25:24.661Z,1.41
2022-10-13T13:28:58.272Z,1.41
2022-10-13T13:32:58.104Z,1.41
2022-10-13T13:36:58.283Z,1.41
2022-10-13T13:41:02.962Z,1.41
2022-10-13T13:44:57.597Z,1.41
2022-10-13T13:48:57.925Z,1.41
2022-10-13T13:52:57.690Z,4.32
2022-10-13T13:56:59.011Z,4.32
2022-10-13T14:01:02.291Z,0.1
2022-10-13T14:04:58.104Z,0.06
2022-10-13T14:08:58.403Z,0.06
2022-10-13T14:12:57.664Z,0.05
2022-10-13T14:16:57.632Z,0.05
2022-10-13T14:20:58.536Z,0.05
2022-10-13T14:24:58.111Z,0.04
2022-10-13T14:29:03.589Z,0.04
2022-10-13T14:32:58.170Z,0.04
2022-10-13T14:36:57.956Z,0.04
2022-10-13T14:40:58.219Z,0.04
2022-10-13T14:44:57.757Z,0.04
2022-10-13T14:48:58.680Z,0.04
2022-10-13T14:52:58.322Z,0.04
2022-10-13T14:56:57.573Z,0.04
2022-10-13T15:01:00.590Z,0.04
2022-10-13T15:04:58.464Z,0.04
2022-10-13T15:08:57.958Z,0.04
2022-10-13T15:12:57.976Z,0.04
2022-10-13T15:16:57.662Z,0.04
2022-10-13T15:20:58.049Z,0.04
2022-10-13T15:24:57.599Z,0.04
2022-10-13T15:28:58.342Z,0.04
2022-10-13T15:32:58.811Z,0.04
2022-10-13T15:36:57.975Z,0.04
2022-10-13T15:40:58.036Z,0.04
2022-10-13T15:45:31.690Z,0.04
2022-10-13T15:48:58.260Z,0.04
2022-10-13T15:52:58.994Z,0.04
2022-10-13T15:56:58.250Z,0.04
2022-10-13T16:01:00.787Z,0.04
2022-10-13T16:05:00.306Z,0.04
2022-10-13T16:08:57.871Z,0.04
2022-10-13T16:13:01.093Z,0.04
2022-10-13T16:16:58.606Z,0.04
2022-10-13T16:20:57.645Z,0.04
2022-10-13T16:24:58.039Z,0.04
2022-10-13T16:28:58.226Z,0.04
2022-10-13T16:32:57.861Z,0.04
2022-10-13T16:36:58.309Z,0.04
2022-10-13T16:40:57.915Z,0.04
2022-10-13T16:44:58.171Z,0.04
2022-10-13T16:48:58.266Z,0.04
2022-10-13T16:52:58.386Z,0.04
2022-10-13T16:56:58.462Z,0.04
2022-10-13T17:01:03.256Z,0.04
2022-10-13T17:05:01.552Z,0.04
2022-10-13T17:08:58.176Z,0.04
2022-10-13T17:12:58.138Z,0.04
2022-10-13T17:16:58.238Z,0.04
2022-10-13T17:20:58.317Z,0.04
2022-10-13T17:24:58.682Z,0.04
2022-10-13T17:28:58.350Z,0.04
2022-10-13T17:33:02.044Z,0.04
2022-10-13T17:36:57.631Z,0.04
2022-10-13T17:40:59.740Z,0.04
2022-10-13T17:44:58.423Z,0.04
2022-10-13T17:49:00.004Z,0.04
2022-10-13T17:52:57.716Z,0.04
2022-10-13T17:56:58.187Z,0.04
2022-10-13T18:01:34.295Z,0.04
2022-10-13T18:04:58.125Z,0.04
2022-10-13T18:08:58.463Z,0.04
2022-10-13T18:12:58.154Z,0.04
2022-10-13T18:16:58.311Z,0.04
2022-10-13T18:20:58.197Z,0.04
2022-10-13T18:24:57.751Z,0.04
2022-10-13T18:28:58.841Z,0.04
2022-10-13T18:32:58.116Z,0.04
2022-10-13T18:36:57.942Z,0.04
2022-10-13T18:40:57.838Z,0.04
2022-10-13T18:44:58.184Z,0.04
2022-10-13T18:48:58.132Z,0.04
2022-10-13T18:52:58.410Z,0.04
2022-10-13T18:56:58.458Z,0.04
2022-10-13T19:01:00.774Z,0.04
2022-10-13T19:04:58.247Z,0.04
2022-10-13T19:08:57.573Z,0.04
2022-10-13T19:12:57.910Z,0.04
2022-10-13T19:17:01.960Z,0.04
2022-10-13T19:20:58.205Z,0.04
2022-10-13T19:24:57.637Z,0.04
2022-10-13T19:28:58.457Z,0.04
2022-10-13T19:32:58.099Z,0.04
2022-10-13T19:36:58.836Z,0.04
2022-10-13T19:41:04.698Z,0.04
2022-10-13T19:44:57.739Z,0.04
2022-10-13T19:48:58.403Z,0.04
2022-10-13T19:52:58.358Z,0.04
2022-10-13T19:56:58.160Z,0.04
2022-10-13T20:01:01.435Z,0.04
2022-10-13T20:04:58.019Z,0.04
2022-10-13T20:08:58.333Z,0.04
2022-10-13T20:12:58.339Z,0.04
2022-10-13T20:16:58.153Z,0.04
2022-10-13T20:20:57.732Z,0.04
2022-10-13T20:24:57.628Z,0.04
2022-10-13T20:29:05.285Z,0.04
2022-10-13T20:32:58.268Z,0.04
2022-10-13T20:37:01.735Z,0.04
2022-10-13T20:40:58.317Z,0.04
2022-10-13T20:44:58.455Z,0.04
2022-10-13T20:49:27.958Z,0.04
2022-10-13T20:52:57.548Z,0.04
2022-10-13T20:56:58.353Z,0.04
2022-10-13T21:01:00.869Z,0.04
2022-10-13T21:04:58.050Z,0.04
2022-10-13T21:08:58.321Z,0.04
2022-10-13T21:12:58.344Z,0.04
2022-10-13T21:16:58.216Z,0.04
2022-10-13T21:20:57.744Z,0.04
2022-10-13T21:24:57.484Z,0.04
2022-10-13T21:28:58.809Z,0.04
2022-10-13T21:32:58.096Z,0.04
2022-10-13T21:36:58.235Z,0.04
2022-10-13T21:41:04.987Z,0.04
2022-10-13T21:44:57.888Z,0.04
2022-10-13T21:48:57.613Z,0.04
2022-10-13T21:52:57.967Z,0.04
2022-10-13T21:56:57.841Z,0.04
2022-10-13T22:01:08.100Z,0.04
2022-10-13T22:12:58.523Z,0.04
2022-10-13T22:14:58.251Z,0.04
2022-10-13T22:16:58.305Z,0.04
2022-10-13T22:18:57.746Z,0.04
2022-10-13T22:20:57.900Z,0.04
2022-10-13T22:23:04.516Z,0.04
2022-10-13T22:24:58.192Z,0.04
2022-10-13T22:26:58.277Z,0.04
2022-10-13T22:29:00.426Z,0.04
2022-10-13T22:30:58.169Z,0.04
2022-10-13T22:32:58.205Z,0.04
2022-10-13T22:34:58.121Z,0.04
2022-10-13T22:36:58.382Z,0.04
2022-10-13T22:38:57.570Z,0.04
2022-10-13T22:40:58.487Z,0.04
2022-10-13T22:42:58.262Z,0.04
2022-10-13T22:44:58.158Z,0.04
2022-10-13T22:46:58.555Z,0.04
2022-10-13T22:49:03.220Z,0.04
2022-10-13T22:50:59.597Z,0.04
2022-10-13T22:52:58.173Z,0.04
2022-10-13T22:54:57.902Z,0.04
2022-10-13T22:56:57.941Z,0.04
2022-10-13T22:58:58.294Z,0.04
2022-10-13T23:01:01.046Z,0.04
2022-10-13T23:02:57.869Z,0.04
2022-10-13T23:04:57.808Z,0.04
2022-10-13T23:06:58.413Z,0.04
2022-10-13T23:08:58.302Z,0.04
2022-10-13T23:10:57.609Z,0.04
2022-10-13T23:12:58.238Z,0.04
2022-10-13T23:14:58.086Z,0.04
2022-10-13T23:16:58.545Z,0.04
2022-10-13T23:18:57.800Z,0.04
2022-10-13T23:20:58.003Z,0.04
2022-10-13T23:22:57.545Z,0.04
2022-10-13T23:24:58.240Z,0.04
2022-10-13T23:26:58.053Z,0.04
2022-10-13T23:28:58.909Z,0.04
2022-10-13T23:30:58.011Z,0.04
2022-10-13T23:33:03.734Z,0.04
2022-10-13T23:34:57.559Z,0.04
2022-10-13T23:36:57.813Z,0.04
2022-10-13T23:38:58.021Z,0.04
2022-10-13T23:40:58.348Z,0.04
2022-10-13T23:42:58.489Z,0.04
2022-10-13T23:44:58.184Z,0.04
2022-10-13T23:46:57.486Z,0.04
2022-10-13T23:48:58.097Z,0.04
2022-10-13T23:50:57.706Z,0.04
2022-10-13T23:52:58.180Z,0.04
2022-10-13T23:54:58.320Z,0.04
2022-10-13T23:56:57.763Z,0.04
2022-10-13T23:58:58.190Z,0.04
